Norway, Kansas
Current Conditions -  °F | °C
As of 7:55 PM on Sunday 23 Nov 2014 (Local Time) from KCNK Reporting Station
Clear Clear  
Wind Chill:   Ceiling: Unl
Heat Index:   Visibility: 10mi
Dew Point:   Wind: 9mph
Humidity: 73%   Direction: 310°NW
Pressure: 29.63"   Gusts: NA
Location:  39.7°N, 97.77°W
Report Text: KCNK 240155Z AUTO 31008KT 10SM CLR 04/00 A2963 RMK AO2 SLP036 T00440000
Loading
Personal Weather Stations






























Interactive Weather Map New forecast layout! Learn more

10-Day Weather Forecast

Advertisements
Track Severe Weather on mobile